METAR Data
IDs: Format: Raw Decoded Include TAF

Data at: 1946 UTC 23 Sep 2018

METAR for:PANC (Anchorage Intl, AK, US)
Text:PANC 231853Z 16009G20KT 10SM FEW032 SCT110 SCT180 13/06 A2980 RMK AO2 SLP091 T01280056
Temperature: 12.8°C ( 55°F)
Dewpoint: 5.6°C ( 42°F) [RH = 62%]
Pressure (altimeter):29.80 inches Hg (1009.2 mb) [Sea level pressure: 1009.1 mb]
Winds:from the SSE (160 degrees) at 10 MPH (9 knots; 4.6 m/s) gusting to 23 MPH (20 knots; 10.3 m/s)
Visibility:10 or more sm (16+ km)
Ceiling:at least 12,000 feet AGL
Clouds: few clouds at 3200 feet AGL, scattered clouds at 11000 feet AGL, scattered clouds at 18000 feet AGL
Text:PANC 231753Z 14010G15KT 10SM FEW080 SCT110 SCT180 13/06 A2978 RMK AO2 SLP084 T01280056 10128 20106 53018
Temperature: 12.8°C ( 55°F)
Dewpoint: 5.6°C ( 42°F) [RH = 62%]
Pressure (altimeter):29.78 inches Hg (1008.5 mb) [Sea level pressure: 1008.4 mb]
Winds:from the SE (140 degrees) at 12 MPH (10 knots; 5.1 m/s) gusting to 17 MPH (15 knots; 7.7 m/s)
Visibility:10 or more sm (16+ km)
Ceiling:at least 12,000 feet AGL
Clouds: few clouds at 8000 feet AGL, scattered clouds at 11000 feet AGL, scattered clouds at 18000 feet AGL
Text:PANC 231653Z 18011G17KT 10SM FEW070 SCT180 12/05 A2975 RMK AO2 SLP075 T01170050
Temperature: 11.7°C ( 53°F)
Dewpoint: 5.0°C ( 41°F) [RH = 63%]
Pressure (altimeter):29.75 inches Hg (1007.5 mb) [Sea level pressure: 1007.5 mb]
Winds:from the S (180 degrees) at 13 MPH (11 knots; 5.7 m/s) gusting to 20 MPH (17 knots; 8.7 m/s)
Visibility:10 or more sm (16+ km)
Ceiling:at least 12,000 feet AGL
Clouds: few clouds at 7000 feet AGL, scattered clouds at 18000 feet AGL
Text:PANC 231553Z 16008G19KT 10SM FEW070 SCT180 11/04 A2974 RMK AO2 PK WND 18029/1511 SLP071 T01110044
Temperature: 11.1°C ( 52°F)
Dewpoint: 4.4°C ( 40°F) [RH = 63%]
Pressure (altimeter):29.74 inches Hg (1007.2 mb) [Sea level pressure: 1007.1 mb]
Winds:from the SSE (160 degrees) at 9 MPH (8 knots; 4.1 m/s) gusting to 22 MPH (19 knots; 9.8 m/s)
Visibility:10 or more sm (16+ km)
Ceiling:at least 12,000 feet AGL
Clouds: few clouds at 7000 feet AGL, scattered clouds at 18000 feet AGL
Text:PANC 231453Z 17010G16KT 10SM FEW070 FEW180 11/05 A2973 RMK AO2 SLP066 T01110050 52014
Temperature: 11.1°C ( 52°F)
Dewpoint: 5.0°C ( 41°F) [RH = 66%]
Pressure (altimeter):29.73 inches Hg (1006.9 mb) [Sea level pressure: 1006.6 mb]
Winds:from the S (170 degrees) at 12 MPH (10 knots; 5.1 m/s) gusting to 18 MPH (16 knots; 8.2 m/s)
Visibility:10 or more sm (16+ km)
Ceiling:at least 12,000 feet AGL
Clouds: few clouds at 7000 feet AGL, few clouds at 18000 feet AGL
Text:PANC 231353Z 17011G20KT 10SM CLR 12/04 A2971 RMK AO2 SLP062 T01170044
Temperature: 11.7°C ( 53°F)
Dewpoint: 4.4°C ( 40°F) [RH = 61%]
Pressure (altimeter):29.71 inches Hg (1006.2 mb) [Sea level pressure: 1006.2 mb]
Winds:from the S (170 degrees) at 13 MPH (11 knots; 5.7 m/s) gusting to 23 MPH (20 knots; 10.3 m/s)
Visibility:10 or more sm (16+ km)
Ceiling:at least 12,000 feet AGL
Clouds:sky clear below 12,000 feet AGL

TAF for:PANC (Anchorage Intl, AK, US) issued at 1741 UTC 23 Sep 2018
Text:PANC 231741Z 2318/2424 16012G20KT P6SM FEW070 SCT200
Forecast period:1800 to 2000 UTC 23 September 2018
Forecast type:FROM: standard forecast or significant change
Winds:from the SSE (160 degrees) at 14 MPH (12 knots; 6.2 m/s) gusting to 23 MPH (20 knots; 10.3 m/s)
Visibility:6 or more sm (10+ km)
Ceiling:at least 12,000 feet AGL
Clouds: few clouds at 7000 feet AGL, scattered clouds at 20000 feet AGL
Text:FM232000 15012KT P6SM FEW050 SCT100
Forecast period:2000 UTC 23 September 2018 to 0800 UTC 24 September 2018
Forecast type:FROM: standard forecast or significant change
Winds:from the SSE (150 degrees) at 14 MPH (12 knots; 6.2 m/s)
Visibility:6 or more sm (10+ km)
Ceiling:at least 12,000 feet AGL
Clouds: few clouds at 5000 feet AGL, scattered clouds at 10000 feet AGL
Text:FM240800 15008KT P6SM SCT050 BKN100
Forecast period:0800 to 1000 UTC 24 September 2018
Forecast type:FROM: standard forecast or significant change
Winds:from the SSE (150 degrees) at 9 MPH (8 knots; 4.1 m/s)
Visibility:6 or more sm (10+ km)
Ceiling:10000 feet AGL
Clouds: scattered clouds at 5000 feet AGL, broken clouds at 10000 feet AGL
Text:FM241000 35006KT P6SM -RA SCT035 OVC050 WS020/13040KT
Forecast period:1000 to 1700 UTC 24 September 2018
Forecast type:FROM: standard forecast or significant change
Winds:from the N (350 degrees) at 7 MPH (6 knots; 3.1 m/s)
Visibility:6 or more sm (10+ km)
Ceiling:5000 feet AGL
Clouds: scattered clouds at 3500 feet AGL, overcast cloud deck at 5000 feet AGL
Weather:-RA (light rain)
Wind Shear:130 degrees at 40 knots at 2000 feet AGL
Text:FM241700 09009KT P6SM VCSH SCT035 BKN050 WS020/13040KT
Forecast period:1700 UTC 24 September 2018 to 0000 UTC 25 September 2018
Forecast type:FROM: standard forecast or significant change
Winds:from the E (90 degrees) at 10 MPH (9 knots; 4.6 m/s)
Visibility:6 or more sm (10+ km)
Ceiling:5000 feet AGL
Clouds: scattered clouds at 3500 feet AGL, broken clouds at 5000 feet AGL
Weather:VCSH (showers in vicinity)
Wind Shear:130 degrees at 40 knots at 2000 feet AGL